sensor_id;sensor_type;location;lat;lon;timestamp;temperature;humidity
21271;DHT22;10795;50.796;3.860;2022-08-21T00:01:14;15.70;99.90
21271;DHT22;10795;50.796;3.860;2022-08-21T00:03:41;15.60;99.90
21271;DHT22;10795;50.796;3.860;2022-08-21T00:06:06;15.60;99.90
21271;DHT22;10795;50.796;3.860;2022-08-21T00:08:32;15.50;99.90
21271;DHT22;10795;50.796;3.860;2022-08-21T00:10:57;15.60;99.90
21271;DHT22;10795;50.796;3.860;2022-08-21T00:13:23;15.50;99.90
21271;DHT22;10795;50.796;3.860;2022-08-21T00:15:49;15.20;99.90
21271;DHT22;10795;50.796;3.860;2022-08-21T00:18:15;15.10;99.90
21271;DHT22;10795;50.796;3.860;2022-08-21T00:20:41;15.30;99.90
21271;DHT22;10795;50.796;3.860;2022-08-21T00:23:07;15.20;99.90
21271;DHT22;10795;50.796;3.860;2022-08-21T00:25:33;15.20;99.90
21271;DHT22;10795;50.796;3.860;2022-08-21T00:27:59;15.10;99.90
21271;DHT22;10795;50.796;3.860;2022-08-21T00:30:27;15.10;99.90
21271;DHT22;10795;50.796;3.860;2022-08-21T00:32:54;15.50;99.90
21271;DHT22;10795;50.796;3.860;2022-08-21T00:35:22;15.70;99.90
21271;DHT22;10795;50.796;3.860;2022-08-21T00:37:48;15.50;99.90
21271;DHT22;10795;50.796;3.860;2022-08-21T00:40:15;15.20;99.90
21271;DHT22;10795;50.796;3.860;2022-08-21T00:42:41;15.10;99.90
21271;DHT22;10795;50.796;3.860;2022-08-21T00:45:08;15.30;99.90
21271;DHT22;10795;50.796;3.860;2022-08-21T00:47:34;15.40;99.90
21271;DHT22;10795;50.796;3.860;2022-08-21T00:50:00;15.50;99.90
21271;DHT22;10795;50.796;3.860;2022-08-21T00:52:26;15.20;99.90
21271;DHT22;10795;50.796;3.860;2022-08-21T00:54:53;15.00;99.90
21271;DHT22;10795;50.796;3.860;2022-08-21T00:57:22;15.00;99.90
21271;DHT22;10795;50.796;3.860;2022-08-21T00:59:49;15.00;99.90
21271;DHT22;10795;50.796;3.860;2022-08-21T01:02:16;14.80;99.90
21271;DHT22;10795;50.796;3.860;2022-08-21T01:04:42;14.80;99.90
21271;DHT22;10795;50.796;3.860;2022-08-21T01:07:08;14.80;99.90
21271;DHT22;10795;50.796;3.860;2022-08-21T01:09:34;14.70;99.90
21271;DHT22;10795;50.796;3.860;2022-08-21T01:12:00;14.60;99.90
21271;DHT22;10795;50.796;3.860;2022-08-21T01:14:25;14.40;99.90
21271;DHT22;10795;50.796;3.860;2022-08-21T01:16:52;14.20;99.90
21271;DHT22;10795;50.796;3.860;2022-08-21T01:19:18;14.20;99.90
21271;DHT22;10795;50.796;3.860;2022-08-21T01:21:45;14.20;99.90
21271;DHT22;10795;50.796;3.860;2022-08-21T01:24:11;14.20;99.90
21271;DHT22;10795;50.796;3.860;2022-08-21T01:26:37;14.20;99.90
21271;DHT22;10795;50.796;3.860;2022-08-21T01:31:29;14.30;99.90
21271;DHT22;10795;50.796;3.860;2022-08-21T01:33:55;14.30;99.90
21271;DHT22;10795;50.796;3.860;2022-08-21T01:36:21;14.30;99.90
21271;DHT22;10795;50.796;3.860;2022-08-21T01:38:47;14.40;99.90
21271;DHT22;10795;50.796;3.860;2022-08-21T01:41:13;14.30;99.90
21271;DHT22;10795;50.796;3.860;2022-08-21T01:43:40;14.30;99.90
21271;DHT22;10795;50.796;3.860;2022-08-21T01:46:05;14.20;99.90
21271;DHT22;10795;50.796;3.860;2022-08-21T01:48:31;14.10;99.90
21271;DHT22;10795;50.796;3.860;2022-08-21T01:50:57;14.00;99.90
21271;DHT22;10795;50.796;3.860;2022-08-21T01:53:23;13.90;99.90
21271;DHT22;10795;50.796;3.860;2022-08-21T01:55:48;13.80;99.90
21271;DHT22;10795;50.796;3.860;2022-08-21T01:58:14;13.80;99.90
21271;DHT22;10795;50.796;3.860;2022-08-21T02:00:40;13.70;99.90
21271;DHT22;10795;50.796;3.860;2022-08-21T02:03:05;13.80;99.90
21271;DHT22;10795;50.796;3.860;2022-08-21T02:05:31;13.80;99.90
21271;DHT22;10795;50.796;3.860;2022-08-21T02:07:57;13.80;99.90
21271;DHT22;10795;50.796;3.860;2022-08-21T02:10:27;13.80;99.90
21271;DHT22;10795;50.796;3.860;2022-08-21T02:12:54;13.90;99.90
21271;DHT22;10795;50.796;3.860;2022-08-21T02:15:20;13.90;99.90
21271;DHT22;10795;50.796;3.860;2022-08-21T02:17:47;13.80;99.90
21271;DHT22;10795;50.796;3.860;2022-08-21T02:20:19;13.50;99.90
21271;DHT22;10795;50.796;3.860;2022-08-21T02:22:45;13.20;99.90
21271;DHT22;10795;50.796;3.860;2022-08-21T02:25:11;13.20;99.90
21271;DHT22;10795;50.796;3.860;2022-08-21T02:27:37;13.10;99.90
21271;DHT22;10795;50.796;3.860;2022-08-21T02:30:03;13.10;99.90
21271;DHT22;10795;50.796;3.860;2022-08-21T02:32:29;13.20;99.90
21271;DHT22;10795;50.796;3.860;2022-08-21T02:34:56;13.40;99.90
21271;DHT22;10795;50.796;3.860;2022-08-21T02:37:22;13.40;99.90
21271;DHT22;10795;50.796;3.860;2022-08-21T02:39:48;13.50;99.90
21271;DHT22;10795;50.796;3.860;2022-08-21T02:42:13;13.60;99.90
21271;DHT22;10795;50.796;3.860;2022-08-21T02:44:39;13.60;99.90
21271;DHT22;10795;50.796;3.860;2022-08-21T02:47:05;13.70;99.90
21271;DHT22;10795;50.796;3.860;2022-08-21T02:49:30;13.70;99.90
21271;DHT22;10795;50.796;3.860;2022-08-21T02:51:56;13.60;99.90
21271;DHT22;10795;50.796;3.860;2022-08-21T02:54:22;13.60;99.90
21271;DHT22;10795;50.796;3.860;2022-08-21T02:56:47;13.50;99.90
21271;DHT22;10795;50.796;3.860;2022-08-21T02:59:13;13.50;99.90
21271;DHT22;10795;50.796;3.860;2022-08-21T03:01:38;13.60;99.90
21271;DHT22;10795;50.796;3.860;2022-08-21T03:04:04;13.60;99.90
21271;DHT22;10795;50.796;3.860;2022-08-21T03:06:30;13.50;99.90
21271;DHT22;10795;50.796;3.860;2022-08-21T03:08:55;13.40;99.90
21271;DHT22;10795;50.796;3.860;2022-08-21T03:11:22;13.20;99.90
21271;DHT22;10795;50.796;3.860;2022-08-21T03:13:48;13.00;99.90
21271;DHT22;10795;50.796;3.860;2022-08-21T03:16:14;12.80;99.90
21271;DHT22;10795;50.796;3.860;2022-08-21T03:18:40;13.00;99.90
21271;DHT22;10795;50.796;3.860;2022-08-21T03:21:05;13.00;99.90
21271;DHT22;10795;50.796;3.860;2022-08-21T03:23:31;13.10;99.90
21271;DHT22;10795;50.796;3.860;2022-08-21T03:25:57;13.20;99.90
21271;DHT22;10795;50.796;3.860;2022-08-21T03:28:23;13.30;99.90
21271;DHT22;10795;50.796;3.860;2022-08-21T03:30:49;13.20;99.90
21271;DHT22;10795;50.796;3.860;2022-08-21T03:33:16;13.20;99.90
21271;DHT22;10795;50.796;3.860;2022-08-21T03:35:42;13.30;99.90
21271;DHT22;10795;50.796;3.860;2022-08-21T03:38:08;13.40;99.90
21271;DHT22;10795;50.796;3.860;2022-08-21T03:40:34;13.40;99.90
21271;DHT22;10795;50.796;3.860;2022-08-21T03:42:59;13.20;99.90
21271;DHT22;10795;50.796;3.860;2022-08-21T03:45:25;13.20;99.90
21271;DHT22;10795;50.796;3.860;2022-08-21T03:47:52;13.20;99.90
21271;DHT22;10795;50.796;3.860;2022-08-21T03:50:18;13.20;99.90
21271;DHT22;10795;50.796;3.860;2022-08-21T03:52:43;13.10;99.90
21271;DHT22;10795;50.796;3.860;2022-08-21T03:55:10;13.10;99.90
21271;DHT22;10795;50.796;3.860;2022-08-21T03:57:36;13.10;99.90
21271;DHT22;10795;50.796;3.860;2022-08-21T04:00:02;13.20;99.90
21271;DHT22;10795;50.796;3.860;2022-08-21T04:02:30;13.20;99.90
21271;DHT22;10795;50.796;3.860;2022-08-21T04:04:56;13.20;99.90
21271;DHT22;10795;50.796;3.860;2022-08-21T04:07:21;13.20;99.90
21271;DHT22;10795;50.796;3.860;2022-08-21T04:09:47;13.00;99.90
21271;DHT22;10795;50.796;3.860;2022-08-21T04:12:12;12.90;99.90
21271;DHT22;10795;50.796;3.860;2022-08-21T04:14:38;12.70;99.90
21271;DHT22;10795;50.796;3.860;2022-08-21T04:17:04;12.60;99.90
21271;DHT22;10795;50.796;3.860;2022-08-21T04:19:30;12.50;99.90
21271;DHT22;10795;50.796;3.860;2022-08-21T04:21:56;12.60;99.90
21271;DHT22;10795;50.796;3.860;2022-08-21T04:24:22;12.70;99.90
21271;DHT22;10795;50.796;3.860;2022-08-21T04:26:48;12.70;99.90
21271;DHT22;10795;50.796;3.860;2022-08-21T04:29:13;12.80;99.90
21271;DHT22;10795;50.796;3.860;2022-08-21T04:31:39;13.00;99.90
21271;DHT22;10795;50.796;3.860;2022-08-21T04:34:05;13.00;99.90
21271;DHT22;10795;50.796;3.860;2022-08-21T04:36:31;13.00;99.90
21271;DHT22;10795;50.796;3.860;2022-08-21T04:38:56;13.00;99.90
21271;DHT22;10795;50.796;3.860;2022-08-21T04:41:22;13.00;99.90
21271;DHT22;10795;50.796;3.860;2022-08-21T04:43:48;13.00;99.90
21271;DHT22;10795;50.796;3.860;2022-08-21T04:46:15;13.00;99.90
21271;DHT22;10795;50.796;3.860;2022-08-21T04:48:40;13.00;99.90
21271;DHT22;10795;50.796;3.860;2022-08-21T04:51:13;13.00;99.90
21271;DHT22;10795;50.796;3.860;2022-08-21T04:53:44;12.90;99.90
21271;DHT22;10795;50.796;3.860;2022-08-21T04:56:33;13.10;99.90
21271;DHT22;10795;50.796;3.860;2022-08-21T04:58:57;13.40;99.90
21271;DHT22;10795;50.796;3.860;2022-08-21T05:01:24;13.40;99.90
21271;DHT22;10795;50.796;3.860;2022-08-21T05:03:52;13.40;99.90
21271;DHT22;10795;50.796;3.860;2022-08-21T05:06:19;13.30;99.90
21271;DHT22;10795;50.796;3.860;2022-08-21T05:08:47;13.40;99.90
21271;DHT22;10795;50.796;3.860;2022-08-21T05:11:14;13.30;99.90
21271;DHT22;10795;50.796;3.860;2022-08-21T05:13:39;13.10;99.90
21271;DHT22;10795;50.796;3.860;2022-08-21T05:16:06;13.10;99.90
21271;DHT22;10795;50.796;3.860;2022-08-21T05:18:32;13.20;99.90
21271;DHT22;10795;50.796;3.860;2022-08-21T05:20:58;13.20;99.90
21271;DHT22;10795;50.796;3.860;2022-08-21T05:23:23;13.30;99.90
21271;DHT22;10795;50.796;3.860;2022-08-21T05:25:50;13.40;99.90
21271;DHT22;10795;50.796;3.860;2022-08-21T05:28:16;13.50;99.90
21271;DHT22;10795;50.796;3.860;2022-08-21T05:30:43;13.60;99.90
21271;DHT22;10795;50.796;3.860;2022-08-21T05:33:09;13.60;99.90
21271;DHT22;10795;50.796;3.860;2022-08-21T05:35:35;13.60;99.90
21271;DHT22;10795;50.796;3.860;2022-08-21T05:38:01;13.80;99.90
21271;DHT22;10795;50.796;3.860;2022-08-21T05:40:27;13.80;99.90
21271;DHT22;10795;50.796;3.860;2022-08-21T05:42:53;14.00;99.90
21271;DHT22;10795;50.796;3.860;2022-08-21T05:45:19;14.30;99.90
21271;DHT22;10795;50.796;3.860;2022-08-21T05:47:44;14.80;99.90
21271;DHT22;10795;50.796;3.860;2022-08-21T05:50:12;15.50;99.90
21271;DHT22;10795;50.796;3.860;2022-08-21T05:52:38;16.00;99.90
21271;DHT22;10795;50.796;3.860;2022-08-21T05:55:03;16.10;99.90
21271;DHT22;10795;50.796;3.860;2022-08-21T05:57:29;15.80;99.90
21271;DHT22;10795;50.796;3.860;2022-08-21T05:59:55;16.10;99.90
21271;DHT22;10795;50.796;3.860;2022-08-21T06:02:21;16.50;99.90
21271;DHT22;10795;50.796;3.860;2022-08-21T06:04:47;16.80;99.90
21271;DHT22;10795;50.796;3.860;2022-08-21T06:07:13;16.90;99.90
21271;DHT22;10795;50.796;3.860;2022-08-21T06:09:38;17.10;99.90
21271;DHT22;10795;50.796;3.860;2022-08-21T06:12:04;16.30;99.90
21271;DHT22;10795;50.796;3.860;2022-08-21T06:14:30;16.00;99.90
21271;DHT22;10795;50.796;3.860;2022-08-21T06:17:01;16.50;99.90
21271;DHT22;10795;50.796;3.860;2022-08-21T06:19:27;16.60;99.90
21271;DHT22;10795;50.796;3.860;2022-08-21T06:21:52;17.80;99.90
21271;DHT22;10795;50.796;3.860;2022-08-21T06:24:18;18.60;99.90
21271;DHT22;10795;50.796;3.860;2022-08-21T06:26:43;18.90;99.90
21271;DHT22;10795;50.796;3.860;2022-08-21T06:29:09;19.10;99.90
21271;DHT22;10795;50.796;3.860;2022-08-21T06:31:38;17.50;99.90
21271;DHT22;10795;50.796;3.860;2022-08-21T06:34:04;16.80;99.90
21271;DHT22;10795;50.796;3.860;2022-08-21T06:36:30;17.00;99.90
21271;DHT22;10795;50.796;3.860;2022-08-21T06:38:55;16.80;99.90
21271;DHT22;10795;50.796;3.860;2022-08-21T06:41:21;17.20;99.90
21271;DHT22;10795;50.796;3.860;2022-08-21T06:43:47;17.50;99.90
21271;DHT22;10795;50.796;3.860;2022-08-21T06:46:12;17.10;99.90
21271;DHT22;10795;50.796;3.860;2022-08-21T06:48:38;18.40;99.90
21271;DHT22;10795;50.796;3.860;2022-08-21T06:51:04;18.60;99.90
21271;DHT22;10795;50.796;3.860;2022-08-21T06:53:29;18.10;99.90
21271;DHT22;10795;50.796;3.860;2022-08-21T06:55:55;17.20;99.90
21271;DHT22;10795;50.796;3.860;2022-08-21T06:58:20;17.10;99.90
21271;DHT22;10795;50.796;3.860;2022-08-21T07:00:47;17.30;99.90
21271;DHT22;10795;50.796;3.860;2022-08-21T07:03:32;17.80;99.90
21271;DHT22;10795;50.796;3.860;2022-08-21T07:05:58;18.00;99.90
21271;DHT22;10795;50.796;3.860;2022-08-21T07:08:25;18.20;99.90
21271;DHT22;10795;50.796;3.860;2022-08-21T07:10:51;18.10;99.90
21271;DHT22;10795;50.796;3.860;2022-08-21T07:13:17;19.10;99.90
21271;DHT22;10795;50.796;3.860;2022-08-21T07:15:43;19.70;99.90
21271;DHT22;10795;50.796;3.860;2022-08-21T07:18:10;20.60;99.90
21271;DHT22;10795;50.796;3.860;2022-08-21T07:20:35;21.10;99.90
21271;DHT22;10795;50.796;3.860;2022-08-21T07:23:03;22.00;99.90
21271;DHT22;10795;50.796;3.860;2022-08-21T07:25:29;21.90;99.90
21271;DHT22;10795;50.796;3.860;2022-08-21T07:27:55;22.30;99.90
21271;DHT22;10795;50.796;3.860;2022-08-21T07:30:20;22.20;99.90
21271;DHT22;10795;50.796;3.860;2022-08-21T07:32:46;22.60;99.90
21271;DHT22;10795;50.796;3.860;2022-08-21T07:35:14;22.40;99.90
21271;DHT22;10795;50.796;3.860;2022-08-21T07:37:40;22.60;99.90
21271;DHT22;10795;50.796;3.860;2022-08-21T07:40:06;22.80;99.90
21271;DHT22;10795;50.796;3.860;2022-08-21T07:42:32;22.80;99.90
21271;DHT22;10795;50.796;3.860;2022-08-21T07:44:57;22.70;99.90
21271;DHT22;10795;50.796;3.860;2022-08-21T07:47:23;23.00;99.90
21271;DHT22;10795;50.796;3.860;2022-08-21T07:49:48;22.80;99.90
21271;DHT22;10795;50.796;3.860;2022-08-21T07:52:14;22.40;99.90
21271;DHT22;10795;50.796;3.860;2022-08-21T07:54:40;21.50;99.90
21271;DHT22;10795;50.796;3.860;2022-08-21T07:57:06;22.30;99.90
21271;DHT22;10795;50.796;3.860;2022-08-21T07:59:31;22.70;99.90
21271;DHT22;10795;50.796;3.860;2022-08-21T08:01:57;22.80;99.90
21271;DHT22;10795;50.796;3.860;2022-08-21T08:04:23;22.60;99.90
21271;DHT22;10795;50.796;3.860;2022-08-21T08:06:48;23.00;99.90
21271;DHT22;10795;50.796;3.860;2022-08-21T08:09:14;23.00;99.90
21271;DHT22;10795;50.796;3.860;2022-08-21T08:11:41;23.40;99.90
21271;DHT22;10795;50.796;3.860;2022-08-21T08:14:09;22.50;99.90
21271;DHT22;10795;50.796;3.860;2022-08-21T08:16:34;22.30;99.90
21271;DHT22;10795;50.796;3.860;2022-08-21T08:19:00;22.40;99.90
21271;DHT22;10795;50.796;3.860;2022-08-21T08:21:26;22.30;99.90
21271;DHT22;10795;50.796;3.860;2022-08-21T08:23:51;22.60;99.90
21271;DHT22;10795;50.796;3.860;2022-08-21T08:26:17;23.10;99.90
21271;DHT22;10795;50.796;3.860;2022-08-21T08:28:43;22.40;99.90
21271;DHT22;10795;50.796;3.860;2022-08-21T08:31:09;22.10;99.90
21271;DHT22;10795;50.796;3.860;2022-08-21T08:33:34;22.80;99.90
21271;DHT22;10795;50.796;3.860;2022-08-21T08:36:00;23.10;99.90
21271;DHT22;10795;50.796;3.860;2022-08-21T08:38:26;23.80;99.90
21271;DHT22;10795;50.796;3.860;2022-08-21T08:43:25;24.20;99.90
21271;DHT22;10795;50.796;3.860;2022-08-21T08:45:52;23.90;99.90
21271;DHT22;10795;50.796;3.860;2022-08-21T08:51:00;23.70;99.90
21271;DHT22;10795;50.796;3.860;2022-08-21T08:53:29;23.60;99.90
21271;DHT22;10795;50.796;3.860;2022-08-21T08:55:55;24.10;99.90
21271;DHT22;10795;50.796;3.860;2022-08-21T08:58:23;24.20;99.90
21271;DHT22;10795;50.796;3.860;2022-08-21T09:00:50;24.30;99.90
21271;DHT22;10795;50.796;3.860;2022-08-21T09:03:16;25.30;99.90
21271;DHT22;10795;50.796;3.860;2022-08-21T09:05:43;24.90;99.90
21271;DHT22;10795;50.796;3.860;2022-08-21T09:11:04;26.10;99.90
21271;DHT22;10795;50.796;3.860;2022-08-21T09:21:07;25.20;99.90
21271;DHT22;10795;50.796;3.860;2022-08-21T09:26:14;25.70;99.90
21271;DHT22;10795;50.796;3.860;2022-08-21T09:28:40;26.50;99.90
21271;DHT22;10795;50.796;3.860;2022-08-21T09:31:08;26.90;99.90
21271;DHT22;10795;50.796;3.860;2022-08-21T09:33:34;27.50;99.90
21271;DHT22;10795;50.796;3.860;2022-08-21T09:35:59;27.10;99.90
21271;DHT22;10795;50.796;3.860;2022-08-21T09:38:35;27.70;99.90
21271;DHT22;10795;50.796;3.860;2022-08-21T09:41:08;27.20;99.90
21271;DHT22;10795;50.796;3.860;2022-08-21T09:43:35;26.60;99.90
21271;DHT22;10795;50.796;3.860;2022-08-21T09:46:06;26.20;99.90
21271;DHT22;10795;50.796;3.860;2022-08-21T09:51:26;26.70;99.90
21271;DHT22;10795;50.796;3.860;2022-08-21T09:53:57;27.10;99.90
21271;DHT22;10795;50.796;3.860;2022-08-21T09:56:31;26.00;99.90
21271;DHT22;10795;50.796;3.860;2022-08-21T09:59:20;26.20;99.90
21271;DHT22;10795;50.796;3.860;2022-08-21T10:01:50;26.60;99.90
21271;DHT22;10795;50.796;3.860;2022-08-21T10:04:19;25.80;99.90
21271;DHT22;10795;50.796;3.860;2022-08-21T10:06:45;26.00;99.90
21271;DHT22;10795;50.796;3.860;2022-08-21T10:09:15;26.10;99.90
21271;DHT22;10795;50.796;3.860;2022-08-21T10:11:43;27.10;99.90
21271;DHT22;10795;50.796;3.860;2022-08-21T10:19:31;27.50;99.90
21271;DHT22;10795;50.796;3.860;2022-08-21T10:33:11;28.00;99.90
21271;DHT22;10795;50.796;3.860;2022-08-21T10:40:56;27.50;99.90
21271;DHT22;10795;50.796;3.860;2022-08-21T10:48:48;26.60;99.90
21271;DHT22;10795;50.796;3.860;2022-08-21T10:53:49;26.10;99.90
21271;DHT22;10795;50.796;3.860;2022-08-21T10:56:23;26.20;99.90
21271;DHT22;10795;50.796;3.860;2022-08-21T10:58:58;26.50;99.90
21271;DHT22;10795;50.796;3.860;2022-08-21T11:01:31;27.20;99.90
21271;DHT22;10795;50.796;3.860;2022-08-21T11:04:07;26.50;99.90
21271;DHT22;10795;50.796;3.860;2022-08-21T11:06:34;26.10;99.90
21271;DHT22;10795;50.796;3.860;2022-08-21T11:09:13;26.50;99.90
21271;DHT22;10795;50.796;3.860;2022-08-21T11:11:41;26.30;99.90
21271;DHT22;10795;50.796;3.860;2022-08-21T11:16:42;27.30;99.90
21271;DHT22;10795;50.796;3.860;2022-08-21T11:19:28;27.80;99.90
21271;DHT22;10795;50.796;3.860;2022-08-21T11:24:41;28.60;99.90
21271;DHT22;10795;50.796;3.860;2022-08-21T11:27:17;27.70;99.90
21271;DHT22;10795;50.796;3.860;2022-08-21T11:29:44;28.30;99.90
21271;DHT22;10795;50.796;3.860;2022-08-21T11:35:07;28.30;99.90
21271;DHT22;10795;50.796;3.860;2022-08-21T11:50:47;29.40;99.90
21271;DHT22;10795;50.796;3.860;2022-08-21T11:53:16;28.80;99.90
21271;DHT22;10795;50.796;3.860;2022-08-21T11:55:58;29.30;99.90
21271;DHT22;10795;50.796;3.860;2022-08-21T11:58:27;29.40;99.90
21271;DHT22;10795;50.796;3.860;2022-08-21T12:01:03;28.00;99.90
21271;DHT22;10795;50.796;3.860;2022-08-21T12:03:34;28.10;99.90
21271;DHT22;10795;50.796;3.860;2022-08-21T12:06:02;27.90;99.90
21271;DHT22;10795;50.796;3.860;2022-08-21T12:08:30;27.90;99.90
21271;DHT22;10795;50.796;3.860;2022-08-21T12:11:05;28.00;99.90
21271;DHT22;10795;50.796;3.860;2022-08-21T12:13:33;27.40;99.90
21271;DHT22;10795;50.796;3.860;2022-08-21T12:18:37;27.30;99.90
21271;DHT22;10795;50.796;3.860;2022-08-21T12:21:16;26.80;99.90
21271;DHT22;10795;50.796;3.860;2022-08-21T12:24:00;26.60;99.90
21271;DHT22;10795;50.796;3.860;2022-08-21T12:26:29;27.40;99.90
21271;DHT22;10795;50.796;3.860;2022-08-21T12:29:05;27.30;99.90
21271;DHT22;10795;50.796;3.860;2022-08-21T12:31:33;27.20;99.90
21271;DHT22;10795;50.796;3.860;2022-08-21T12:34:00;27.50;99.90
21271;DHT22;10795;50.796;3.860;2022-08-21T12:36:30;27.50;99.90
21271;DHT22;10795;50.796;3.860;2022-08-21T12:39:04;26.90;99.90
21271;DHT22;10795;50.796;3.860;2022-08-21T12:41:34;28.00;99.90
21271;DHT22;10795;50.796;3.860;2022-08-21T12:44:13;27.60;99.90
21271;DHT22;10795;50.796;3.860;2022-08-21T12:46:51;27.50;99.90
21271;DHT22;10795;50.796;3.860;2022-08-21T12:49:36;26.90;99.90
21271;DHT22;10795;50.796;3.860;2022-08-21T12:52:06;27.20;99.90
21271;DHT22;10795;50.796;3.860;2022-08-21T12:54:38;27.90;99.90
21271;DHT22;10795;50.796;3.860;2022-08-21T12:57:05;27.80;99.90
21271;DHT22;10795;50.796;3.860;2022-08-21T12:59:31;27.40;99.90
21271;DHT22;10795;50.796;3.860;2022-08-21T13:01:58;26.80;99.90
21271;DHT22;10795;50.796;3.860;2022-08-21T13:04:35;26.50;99.90
21271;DHT22;10795;50.796;3.860;2022-08-21T13:07:05;27.00;99.90
21271;DHT22;10795;50.796;3.860;2022-08-21T13:09:32;27.10;99.90
21271;DHT22;10795;50.796;3.860;2022-08-21T13:11:58;27.90;99.90
21271;DHT22;10795;50.796;3.860;2022-08-21T13:16:56;27.50;99.90
21271;DHT22;10795;50.796;3.860;2022-08-21T13:19:21;27.00;99.90
21271;DHT22;10795;50.796;3.860;2022-08-21T13:21:47;27.10;99.90
21271;DHT22;10795;50.796;3.860;2022-08-21T13:24:20;26.70;99.90
21271;DHT22;10795;50.796;3.860;2022-08-21T13:26:47;26.00;99.90
21271;DHT22;10795;50.796;3.860;2022-08-21T13:29:14;25.20;99.90
21271;DHT22;10795;50.796;3.860;2022-08-21T13:31:41;25.00;99.90
21271;DHT22;10795;50.796;3.860;2022-08-21T13:34:08;24.80;99.90
21271;DHT22;10795;50.796;3.860;2022-08-21T13:36:37;25.10;99.90
21271;DHT22;10795;50.796;3.860;2022-08-21T13:39:10;25.40;99.90
21271;DHT22;10795;50.796;3.860;2022-08-21T13:41:37;25.70;99.90
21271;DHT22;10795;50.796;3.860;2022-08-21T13:44:05;26.20;99.90
21271;DHT22;10795;50.796;3.860;2022-08-21T13:46:33;26.10;99.90
21271;DHT22;10795;50.796;3.860;2022-08-21T13:49:00;26.20;99.90
21271;DHT22;10795;50.796;3.860;2022-08-21T13:51:26;26.40;99.90
21271;DHT22;10795;50.796;3.860;2022-08-21T13:53:52;26.40;99.90
21271;DHT22;10795;50.796;3.860;2022-08-21T13:56:25;27.50;99.90
21271;DHT22;10795;50.796;3.860;2022-08-21T13:58:52;27.40;99.90
21271;DHT22;10795;50.796;3.860;2022-08-21T14:01:29;27.10;99.90
21271;DHT22;10795;50.796;3.860;2022-08-21T14:03:57;26.90;99.90
21271;DHT22;10795;50.796;3.860;2022-08-21T14:06:25;26.00;99.90
21271;DHT22;10795;50.796;3.860;2022-08-21T14:08:53;26.40;99.90
21271;DHT22;10795;50.796;3.860;2022-08-21T14:11:20;26.90;99.90
21271;DHT22;10795;50.796;3.860;2022-08-21T14:13:51;26.30;99.90
21271;DHT22;10795;50.796;3.860;2022-08-21T14:16:22;26.20;99.90
21271;DHT22;10795;50.796;3.860;2022-08-21T14:21:30;26.70;99.90
21271;DHT22;10795;50.796;3.860;2022-08-21T14:26:34;26.50;99.90
21271;DHT22;10795;50.796;3.860;2022-08-21T14:28:59;26.10;99.90
21271;DHT22;10795;50.796;3.860;2022-08-21T14:31:28;26.40;99.90
21271;DHT22;10795;50.796;3.860;2022-08-21T14:33:54;26.10;99.90
21271;DHT22;10795;50.796;3.860;2022-08-21T14:36:20;26.20;99.90
21271;DHT22;10795;50.796;3.860;2022-08-21T14:38:45;26.00;99.90
21271;DHT22;10795;50.796;3.860;2022-08-21T14:44:03;25.10;99.90
21271;DHT22;10795;50.796;3.860;2022-08-21T14:46:30;25.50;99.90
21271;DHT22;10795;50.796;3.860;2022-08-21T14:48:57;25.90;99.90
21271;DHT22;10795;50.796;3.860;2022-08-21T14:51:23;25.80;99.90
21271;DHT22;10795;50.796;3.860;2022-08-21T14:53:49;26.00;99.90
21271;DHT22;10795;50.796;3.860;2022-08-21T14:56:14;25.60;99.90
21271;DHT22;10795;50.796;3.860;2022-08-21T14:58:42;25.40;99.90
21271;DHT22;10795;50.796;3.860;2022-08-21T15:01:08;25.30;99.90
21271;DHT22;10795;50.796;3.860;2022-08-21T15:03:34;25.40;99.90
21271;DHT22;10795;50.796;3.860;2022-08-21T15:06:00;25.10;99.90
21271;DHT22;10795;50.796;3.860;2022-08-21T15:08:26;25.70;99.90
21271;DHT22;10795;50.796;3.860;2022-08-21T15:10:52;25.80;99.90
21271;DHT22;10795;50.796;3.860;2022-08-21T15:13:18;25.90;99.90
21271;DHT22;10795;50.796;3.860;2022-08-21T15:15:44;25.90;99.90
21271;DHT22;10795;50.796;3.860;2022-08-21T15:18:10;26.50;99.90
21271;DHT22;10795;50.796;3.860;2022-08-21T15:20:36;26.40;99.90
21271;DHT22;10795;50.796;3.860;2022-08-21T15:23:03;26.00;99.90
21271;DHT22;10795;50.796;3.860;2022-08-21T15:25:29;25.80;99.90
21271;DHT22;10795;50.796;3.860;2022-08-21T15:27:54;25.80;99.90
21271;DHT22;10795;50.796;3.860;2022-08-21T15:30:21;26.20;99.90
21271;DHT22;10795;50.796;3.860;2022-08-21T15:32:46;26.70;99.90
21271;DHT22;10795;50.796;3.860;2022-08-21T15:35:12;26.90;99.90
21271;DHT22;10795;50.796;3.860;2022-08-21T15:37:38;27.00;99.90
21271;DHT22;10795;50.796;3.860;2022-08-21T15:40:04;26.60;99.90
21271;DHT22;10795;50.796;3.860;2022-08-21T15:42:31;26.90;99.90
21271;DHT22;10795;50.796;3.860;2022-08-21T15:44:57;27.00;99.90
21271;DHT22;10795;50.796;3.860;2022-08-21T15:47:30;26.90;99.90
21271;DHT22;10795;50.796;3.860;2022-08-21T15:49:56;26.10;99.90
21271;DHT22;10795;50.796;3.860;2022-08-21T15:52:22;25.90;99.90
21271;DHT22;10795;50.796;3.860;2022-08-21T15:54:48;26.40;99.90
21271;DHT22;10795;50.796;3.860;2022-08-21T15:57:15;25.50;99.90
21271;DHT22;10795;50.796;3.860;2022-08-21T15:59:42;24.60;99.90
21271;DHT22;10795;50.796;3.860;2022-08-21T16:02:11;24.30;99.90
21271;DHT22;10795;50.796;3.860;2022-08-21T16:04:38;24.10;99.90
21271;DHT22;10795;50.796;3.860;2022-08-21T16:07:03;24.60;99.90
21271;DHT22;10795;50.796;3.860;2022-08-21T16:09:29;24.90;99.90
21271;DHT22;10795;50.796;3.860;2022-08-21T16:11:54;25.10;99.90
21271;DHT22;10795;50.796;3.860;2022-08-21T16:14:20;25.50;99.90
21271;DHT22;10795;50.796;3.860;2022-08-21T16:16:46;25.80;99.90
21271;DHT22;10795;50.796;3.860;2022-08-21T16:19:12;26.10;99.90
21271;DHT22;10795;50.796;3.860;2022-08-21T16:21:38;25.90;99.90
21271;DHT22;10795;50.796;3.860;2022-08-21T16:24:04;25.70;99.90
21271;DHT22;10795;50.796;3.860;2022-08-21T16:26:30;25.60;99.90
21271;DHT22;10795;50.796;3.860;2022-08-21T16:28:56;25.70;99.90
21271;DHT22;10795;50.796;3.860;2022-08-21T16:31:24;25.90;99.90
21271;DHT22;10795;50.796;3.860;2022-08-21T16:33:51;25.70;99.90
21271;DHT22;10795;50.796;3.860;2022-08-21T16:36:17;25.70;99.90
21271;DHT22;10795;50.796;3.860;2022-08-21T16:38:43;25.60;99.90
21271;DHT22;10795;50.796;3.860;2022-08-21T16:41:11;25.20;99.90
21271;DHT22;10795;50.796;3.860;2022-08-21T16:43:38;25.50;99.90
21271;DHT22;10795;50.796;3.860;2022-08-21T16:46:04;25.40;99.90
21271;DHT22;10795;50.796;3.860;2022-08-21T16:48:30;25.60;99.90
21271;DHT22;10795;50.796;3.860;2022-08-21T16:50:56;25.30;99.90
21271;DHT22;10795;50.796;3.860;2022-08-21T16:53:22;25.00;99.90
21271;DHT22;10795;50.796;3.860;2022-08-21T16:55:49;24.90;99.90
21271;DHT22;10795;50.796;3.860;2022-08-21T16:58:16;24.90;99.90